Time,TemperatureF,DewpointF,PressureIn,WindDirection,WindDirectionDegrees,WindSpeedMPH,WindSpeedGustMPH,Humidity,HourlyPrecipIn,Conditions,Clouds,dailyrainin,SoftwareType,DateUTC
2013-06-24 00:01:00,71.7,65.9,30.48,West,264,2.3,2.3,82,0.00,RA,,0.00,WeatherDisplay:10.37,2013-06-24 04:01:00,
2013-06-24 00:06:00,71.7,65.9,30.47,WSW,258,3.5,3.5,82,0.00,RA,,0.00,WeatherDisplay:10.37,2013-06-24 04:06:00,
2013-06-24 00:11:00,71.8,65.7,30.47,WSW,258,3.5,3.5,81,0.00,BKN,,0.00,WeatherDisplay:10.37,2013-06-24 04:11:00,
2013-06-24 00:16:00,71.8,65.7,30.47,West,263,1.2,1.2,81,0.00,BKN,,0.00,WeatherDisplay:10.37,2013-06-24 04:16:00,
2013-06-24 00:21:00,71.9,65.8,30.47,West,279,2.3,2.3,81,0.00,BKN,,0.00,WeatherDisplay:10.37,2013-06-24 04:21:00,
2013-06-24 00:26:00,71.8,65.7,30.47,West,260,3.5,3.5,81,0.00,BKN,,0.00,WeatherDisplay:10.37,2013-06-24 04:26:00,
2013-06-24 00:31:00,71.8,65.7,30.48,SW,225,2.3,2.3,81,0.00,BKN,,0.00,WeatherDisplay:10.37,2013-06-24 04:31:00,
2013-06-24 00:36:00,71.9,65.8,30.48,WSW,256,1.2,1.2,81,0.00,BKN,,0.00,WeatherDisplay:10.37,2013-06-24 04:36:00,
2013-06-24 00:41:00,71.7,65.6,30.48,WSW,256,0.0,0.0,81,0.00,BKN,,0.00,WeatherDisplay:10.37,2013-06-24 04:41:00,
2013-06-24 00:46:00,71.5,65.4,30.48,WSW,256,0.0,0.0,81,0.00,BKN,,0.00,WeatherDisplay:10.37,2013-06-24 04:46:00,
2013-06-24 00:51:00,71.3,65.5,30.48,WSW,255,1.2,1.2,82,0.00,BKN,,0.00,WeatherDisplay:10.37,2013-06-24 04:51:00,
2013-06-24 00:56:00,71.1,65.3,30.48,WSW,255,1.2,0.0,82,0.00,BKN,,0.00,WeatherDisplay:10.37,2013-06-24 04:56:00,
2013-06-24 01:01:00,71.1,65.3,30.48,WSW,255,1.2,0.0,82,0.00,BKN,,0.00,WeatherDisplay:10.37,2013-06-24 05:01:00,
2013-06-24 01:06:00,71.0,65.2,30.48,WSW,255,0.0,0.1,82,0.00,BKN,,0.00,WeatherDisplay:10.37,2013-06-24 05:06:00,
2013-06-24 01:12:00,70.8,65.0,30.48,WSW,255,0.0,0.0,82,0.00,BKN,,0.00,WeatherDisplay:10.37,2013-06-24 05:12:00,
2013-06-24 01:17:00,70.6,65.2,30.48,WSW,255,0.0,0.0,83,0.00,BKN,,0.00,WeatherDisplay:10.37,2013-06-24 05:17:00,
2013-06-24 01:22:00,70.3,64.9,30.48,WSW,255,1.2,0.0,83,0.00,BKN,,0.00,WeatherDisplay:10.37,2013-06-24 05:22:00,
2013-06-24 01:27:00,70.1,65.0,30.48,WSW,255,1.2,1.2,84,0.00,BKN,,0.00,WeatherDisplay:10.37,2013-06-24 05:27:00,
2013-06-24 01:32:00,70.2,64.8,30.48,WSW,255,0.0,0.0,83,0.00,BKN,,0.00,WeatherDisplay:10.37,2013-06-24 05:32:00,
2013-06-24 01:38:00,70.0,64.6,30.48,WSW,255,1.2,1.2,83,0.00,BKN,,0.00,WeatherDisplay:10.37,2013-06-24 05:38:00,
2013-06-24 01:43:00,70.0,64.9,30.48,WSW,255,1.2,0.0,84,0.00,BKN,,0.00,WeatherDisplay:10.37,2013-06-24 05:43:00,
2013-06-24 01:48:00,70.0,64.6,30.48,West,260,2.3,2.3,83,0.00,BKN,,0.00,WeatherDisplay:10.37,2013-06-24 05:48:00,
2013-06-24 01:53:00,70.3,64.9,30.47,West,260,1.2,0.0,83,0.00,BKN,,0.00,WeatherDisplay:10.37,2013-06-24 05:53:00,
2013-06-24 01:58:00,70.2,64.8,30.47,West,260,0.0,0.0,83,0.00,BKN,,0.00,WeatherDisplay:10.37,2013-06-24 05:58:00,
2013-06-24 02:03:00,69.9,64.8,30.47,West,260,0.0,0.0,84,0.00,BKN,,0.00,WeatherDisplay:10.37,2013-06-24 06:03:00,
2013-06-24 02:08:00,69.6,64.5,30.47,West,260,0.0,0.0,84,0.00,BKN,,0.00,WeatherDisplay:10.37,2013-06-24 06:08:00,
2013-06-24 02:13:00,69.5,64.8,30.47,West,260,0.0,0.0,85,0.00,BKN,,0.00,WeatherDisplay:10.37,2013-06-24 06:13:00,
2013-06-24 02:19:00,69.5,64.8,30.47,West,262,2.3,2.3,85,0.00,BKN,,0.00,WeatherDisplay:10.37,2013-06-24 06:19:00,
2013-06-24 02:24:00,70.0,64.6,30.47,West,262,0.0,0.0,83,0.00,BKN,,0.00,WeatherDisplay:10.37,2013-06-24 06:24:00,
2013-06-24 02:29:00,70.1,64.7,30.47,West,262,0.0,0.0,83,0.00,BKN,,0.00,WeatherDisplay:10.37,2013-06-24 06:29:00,
2013-06-24 02:35:00,70.3,64.9,30.47,West,262,1.2,1.2,83,0.00,BKN,,0.00,WeatherDisplay:10.37,2013-06-24 06:35:00,
2013-06-24 02:40:00,70.2,64.8,30.47,West,262,1.2,1.2,83,0.00,BKN,,0.00,WeatherDisplay:10.37,2013-06-24 06:40:00,
2013-06-24 02:45:00,70.1,65.0,30.47,West,262,1.2,1.2,84,0.00,BKN,,0.00,WeatherDisplay:10.37,2013-06-24 06:45:00,
2013-06-24 02:50:00,70.0,64.9,30.47,West,262,1.2,1.2,84,0.00,BKN,,0.00,WeatherDisplay:10.37,2013-06-24 06:50:00,
2013-06-24 02:56:00,70.3,64.9,30.47,West,262,1.2,1.2,83,0.00,BKN,,0.00,WeatherDisplay:10.37,2013-06-24 06:56:00,
2013-06-24 03:01:00,70.9,64.8,30.46,West,262,1.2,1.2,81,0.00,SCT,,0.00,WeatherDisplay:10.37,2013-06-24 07:01:00,
2013-06-24 03:07:00,71.5,65.0,30.46,West,275,1.2,1.3,80,0.00,SCT,,0.00,WeatherDisplay:10.37,2013-06-24 07:07:00,
2013-06-24 03:12:00,72.0,65.1,30.46,West,272,3.5,3.5,79,0.00,SCT,,0.00,WeatherDisplay:10.37,2013-06-24 07:12:00,
2013-06-24 03:17:00,72.3,65.4,30.46,WSW,253,3.5,3.5,79,0.00,SCT,,0.00,WeatherDisplay:10.37,2013-06-24 07:17:00,
2013-06-24 03:23:00,72.5,65.2,30.46,West,272,3.5,3.5,78,0.00,SCT,,0.00,WeatherDisplay:10.37,2013-06-24 07:23:00,
2013-06-24 03:28:00,72.4,65.2,30.46,West,262,1.2,1.2,78,0.00,SCT,,0.00,WeatherDisplay:10.37,2013-06-24 07:28:00,
2013-06-24 03:33:00,72.4,65.2,30.46,West,270,1.2,1.2,78,0.00,SCT,,0.00,WeatherDisplay:10.37,2013-06-24 07:33:00,
2013-06-24 03:39:00,72.5,65.2,30.46,West,263,2.3,2.3,78,0.00,SCT,,0.00,WeatherDisplay:10.37,2013-06-24 07:39:00,
2013-06-24 03:44:00,72.2,65.3,30.46,West,259,2.3,2.3,79,0.00,SCT,,0.00,WeatherDisplay:10.37,2013-06-24 07:44:00,
2013-06-24 03:49:00,71.9,65.4,30.47,West,259,1.2,1.2,80,0.00,SCT,,0.00,WeatherDisplay:10.37,2013-06-24 07:49:00,
2013-06-24 03:54:00,71.7,65.2,30.47,West,264,1.2,1.2,80,0.00,SCT,,0.00,WeatherDisplay:10.37,2013-06-24 07:54:00,
2013-06-24 03:59:00,71.7,65.2,30.47,West,272,1.2,1.2,80,0.00,SCT,,0.00,WeatherDisplay:10.37,2013-06-24 07:59:00,
2013-06-24 04:04:00,71.8,65.3,30.47,West,274,2.3,2.3,80,0.00,SCT,,0.00,WeatherDisplay:10.37,2013-06-24 08:04:00,
2013-06-24 04:10:00,71.6,65.1,30.47,West,274,1.2,1.2,80,0.00,SCT,,0.00,WeatherDisplay:10.37,2013-06-24 08:10:00,
2013-06-24 04:15:00,71.7,65.2,30.47,West,274,0.0,0.1,80,0.00,SCT,,0.00,WeatherDisplay:10.37,2013-06-24 08:15:00,
2013-06-24 04:20:00,71.5,65.4,30.47,West,274,1.2,0.0,81,0.00,SCT,,0.00,WeatherDisplay:10.37,2013-06-24 08:20:00,
2013-06-24 04:25:00,71.1,65.0,30.47,West,274,0.0,0.0,81,0.00,SCT,,0.00,WeatherDisplay:10.37,2013-06-24 08:25:00,
2013-06-24 04:30:00,70.8,65.0,30.47,West,274,0.0,0.0,82,0.00,SCT,,0.00,WeatherDisplay:10.37,2013-06-24 08:30:00,
2013-06-24 04:35:00,70.7,65.3,30.47,West,274,0.0,0.0,83,0.00,SCT,,0.00,WeatherDisplay:10.37,2013-06-24 08:35:00,
2013-06-24 04:40:00,70.8,65.4,30.47,West,274,1.2,1.2,83,0.00,SCT,,0.00,WeatherDisplay:10.37,2013-06-24 08:40:00,
2013-06-24 04:45:00,70.7,65.3,30.47,West,274,0.0,0.0,83,0.00,SCT,,0.00,WeatherDisplay:10.37,2013-06-24 08:45:00,
2013-06-24 04:50:00,70.3,65.2,30.47,West,274,0.0,0.0,84,0.00,SCT,,0.00,WeatherDisplay:10.37,2013-06-24 08:50:00,
2013-06-24 04:55:00,70.0,65.3,30.47,West,274,0.0,0.0,85,0.00,SCT,,0.00,WeatherDisplay:10.37,2013-06-24 08:55:00,
2013-06-24 05:01:00,70.1,65.4,30.48,WSW,251,1.2,0.0,85,0.00,OVC,,0.00,WeatherDisplay:10.37,2013-06-24 09:01:00,
2013-06-24 05:06:00,70.4,65.3,30.48,WSW,251,0.0,0.0,84,0.00,OVC,,0.00,WeatherDisplay:10.37,2013-06-24 09:06:00,
2013-06-24 05:11:00,70.4,65.3,30.47,WSW,251,0.0,0.0,84,0.00,OVC,,0.00,WeatherDisplay:10.37,2013-06-24 09:11:00,
2013-06-24 05:17:00,70.2,65.5,30.48,West,278,3.5,3.5,85,0.00,OVC,,0.00,WeatherDisplay:10.37,2013-06-24 09:17:00,
2013-06-24 05:22:00,71.0,65.9,30.48,West,267,3.5,3.5,84,0.00,OVC,,0.00,WeatherDisplay:10.37,2013-06-24 09:22:00,
2013-06-24 05:27:00,71.6,65.8,30.48,WSW,246,3.5,3.5,82,0.00,OVC,,0.00,WeatherDisplay:10.37,2013-06-24 09:27:00,
2013-06-24 05:32:00,72.1,65.9,30.48,West,272,3.5,3.5,81,0.00,OVC,,0.00,WeatherDisplay:10.37,2013-06-24 09:32:00,
2013-06-24 05:38:00,72.1,65.9,30.48,West,262,3.5,3.5,81,0.00,OVC,,0.00,WeatherDisplay:10.37,2013-06-24 09:38:00,
2013-06-24 05:43:00,72.1,65.9,30.48,West,265,3.5,3.5,81,0.00,OVC,,0.00,WeatherDisplay:10.37,2013-06-24 09:43:00,
2013-06-24 05:48:00,72.2,66.0,30.48,West,267,3.5,3.5,81,0.00,OVC,,0.00,WeatherDisplay:10.37,2013-06-24 09:48:00,
2013-06-24 05:53:00,72.4,65.9,30.48,West,270,2.3,2.3,80,0.00,OVC,,0.00,WeatherDisplay:10.37,2013-06-24 09:53:00,
2013-06-24 05:58:00,72.5,66.3,30.48,West,262,2.3,2.3,81,0.00,OVC,,0.00,WeatherDisplay:10.37,2013-06-24 09:58:00,
2013-06-24 06:03:00,72.4,66.2,30.49,WSW,256,5.0,5.0,81,0.00,OVC,,0.00,WeatherDisplay:10.37,2013-06-24 10:03:00,
2013-06-24 06:09:00,72.5,66.3,30.48,WSW,255,3.5,3.5,81,0.00,OVC,,0.00,WeatherDisplay:10.37,2013-06-24 10:09:00,
2013-06-24 06:14:00,72.4,66.2,30.49,West,260,3.5,3.5,81,0.00,OVC,,0.00,WeatherDisplay:10.37,2013-06-24 10:14:00,
2013-06-24 06:20:00,72.4,66.2,30.49,WSW,251,2.3,2.3,81,0.00,OVC,,0.00,WeatherDisplay:10.37,2013-06-24 10:20:00,
2013-06-24 06:25:00,72.4,66.2,30.49,WSW,257,2.3,2.3,81,0.00,OVC,,0.00,WeatherDisplay:10.37,2013-06-24 10:25:00,
2013-06-24 06:31:00,72.4,66.2,30.49,West,270,2.3,2.3,81,0.00,OVC,,0.00,WeatherDisplay:10.37,2013-06-24 10:31:00,
2013-06-24 06:36:00,72.5,66.3,30.49,West,272,5.8,5.8,81,0.00,OVC,,0.00,WeatherDisplay:10.37,2013-06-24 10:36:00,
2013-06-24 06:41:00,72.9,66.7,30.49,SW,236,4.0,4.0,81,0.00,OVC,,0.00,WeatherDisplay:10.37,2013-06-24 10:41:00,
2013-06-24 06:46:00,73.3,66.8,30.49,West,264,4.0,4.0,80,0.00,OVC,,0.00,WeatherDisplay:10.37,2013-06-24 10:46:00,
2013-06-24 06:52:00,73.7,66.8,30.49,West,260,4.0,4.0,79,0.00,OVC,,0.00,WeatherDisplay:10.37,2013-06-24 10:52:00,
2013-06-24 06:57:00,74.0,67.1,30.49,West,266,4.0,4.0,79,0.00,OVC,,0.00,WeatherDisplay:10.37,2013-06-24 10:57:00,
2013-06-24 07:02:00,74.4,67.5,30.49,WSW,250,4.6,4.6,79,0.00,BKN,,0.00,WeatherDisplay:10.37,2013-06-24 11:02:00,
2013-06-24 07:07:00,74.8,67.5,30.49,WNW,299,4.0,4.0,78,0.00,BKN,,0.00,WeatherDisplay:10.37,2013-06-24 11:07:00,
2013-06-24 07:13:00,75.2,67.5,30.49,West,270,5.0,5.0,77,0.00,BKN,,0.00,WeatherDisplay:10.37,2013-06-24 11:13:00,
2013-06-24 07:18:00,75.5,67.8,30.49,West,272,4.0,4.0,77,0.00,BKN,,0.00,WeatherDisplay:10.37,2013-06-24 11:18:00,
2013-06-24 07:23:00,75.8,67.7,30.49,West,273,3.5,3.5,76,0.00,BKN,,0.00,WeatherDisplay:10.37,2013-06-24 11:23:00,
2013-06-24 07:28:00,75.8,67.7,30.48,WSW,256,6.0,6.0,76,0.00,BKN,,0.00,WeatherDisplay:10.37,2013-06-24 11:28:00,
2013-06-24 07:33:00,75.8,67.7,30.48,West,265,6.0,6.0,76,0.00,BKN,,0.00,WeatherDisplay:10.37,2013-06-24 11:33:00,
2013-06-24 07:38:00,76.0,67.9,30.49,West,267,6.9,6.9,76,0.00,BKN,,0.00,WeatherDisplay:10.37,2013-06-24 11:38:00,
2013-06-24 07:43:00,76.3,67.8,30.49,West,267,4.6,4.6,75,0.00,BKN,,0.00,WeatherDisplay:10.37,2013-06-24 11:43:00,
2013-06-24 07:50:00,76.8,68.3,30.49,West,272,5.8,5.8,75,0.00,BKN,,0.00,WeatherDisplay:10.37,2013-06-24 11:50:00,
2013-06-24 07:55:00,77.2,67.9,30.49,West,281,7.0,7.0,73,0.00,BKN,,0.00,WeatherDisplay:10.37,2013-06-24 11:55:00,
2013-06-24 08:00:00,77.5,68.2,30.49,WNW,298,7.0,7.0,73,0.00,BKN,,0.00,WeatherDisplay:10.37,2013-06-24 12:00:00,
2013-06-24 08:05:00,77.8,68.4,30.49,West,276,8.1,8.1,73,0.00,BKN,,0.00,WeatherDisplay:10.37,2013-06-24 12:05:00,
2013-06-24 08:11:00,77.9,68.1,30.49,WSW,249,9.2,9.2,72,0.00,BKN,,0.00,WeatherDisplay:10.37,2013-06-24 12:11:00,
2013-06-24 08:16:00,78.1,69.1,30.49,West,269,9.0,9.0,74,0.00,BKN,,0.00,WeatherDisplay:10.37,2013-06-24 12:16:00,
2013-06-24 08:23:00,78.2,68.8,30.49,West,265,7.0,7.0,73,0.00,BKN,,0.00,WeatherDisplay:10.37,2013-06-24 12:23:00,
2013-06-24 08:28:00,78.4,68.2,30.48,West,263,9.2,9.2,71,0.00,BKN,,0.00,WeatherDisplay:10.37,2013-06-24 12:28:00,
2013-06-24 08:33:00,78.6,69.2,30.49,WSW,247,12.7,12.7,73,0.00,BKN,,0.00,WeatherDisplay:10.37,2013-06-24 12:33:00,
2013-06-24 08:38:00,78.7,68.9,30.49,West,267,9.0,9.0,72,0.00,BKN,,0.00,WeatherDisplay:10.37,2013-06-24 12:38:00,
2013-06-24 08:43:00,78.8,69.0,30.49,West,277,8.0,8.0,72,0.00,BKN,,0.00,WeatherDisplay:10.37,2013-06-24 12:43:00,
2013-06-24 08:48:00,79.0,69.6,30.49,West,279,9.2,9.2,73,0.00,BKN,,0.00,WeatherDisplay:10.37,2013-06-24 12:48:00,
2013-06-24 08:54:00,79.4,69.6,30.49,West,264,11.5,11.5,72,0.00,BKN,,0.00,WeatherDisplay:10.37,2013-06-24 12:54:00,
2013-06-24 08:59:00,79.7,69.0,30.48,WSW,250,10.4,10.4,70,0.00,BKN,,0.00,WeatherDisplay:10.37,2013-06-24 12:59:00,
2013-06-24 09:04:00,80.1,69.8,30.48,West,274,6.9,6.9,71,0.00,SCT,,0.00,WeatherDisplay:10.37,2013-06-24 13:04:00,
2013-06-24 09:09:00,80.0,69.7,30.49,West,269,10.4,10.4,71,0.00,SCT,,0.00,WeatherDisplay:10.37,2013-06-24 13:09:00,
2013-06-24 09:14:00,80.0,70.2,30.49,West,272,9.2,9.2,72,0.00,SCT,,0.00,WeatherDisplay:10.37,2013-06-24 13:14:00,
2013-06-24 09:20:00,79.9,69.2,30.49,West,279,11.5,11.5,70,0.00,SCT,,0.00,WeatherDisplay:10.37,2013-06-24 13:20:00,
2013-06-24 09:25:00,79.9,69.7,30.49,WNW,285,11.5,11.5,71,0.00,SCT,,0.00,WeatherDisplay:10.37,2013-06-24 13:25:00,
2013-06-24 09:31:00,80.0,69.3,30.49,WNW,293,10.4,10.4,70,0.00,SCT,,0.00,WeatherDisplay:10.37,2013-06-24 13:31:00,
2013-06-24 09:36:00,79.8,70.0,30.49,WNW,289,12.7,12.7,72,0.00,SCT,,0.00,WeatherDisplay:10.37,2013-06-24 13:36:00,
2013-06-24 09:41:00,79.4,68.8,30.49,WNW,286,12.0,12.0,70,0.00,SCT,,0.00,WeatherDisplay:10.37,2013-06-24 13:41:00,
2013-06-24 09:46:00,79.4,70.0,30.49,WSW,245,5.8,5.8,73,0.00,SCT,,0.00,WeatherDisplay:10.37,2013-06-24 13:46:00,
2013-06-24 09:51:00,79.4,70.0,30.49,West,281,11.5,11.5,73,0.00,SCT,,0.00,WeatherDisplay:10.37,2013-06-24 13:51:00,
2013-06-24 09:57:00,80.0,69.3,30.49,WNW,298,12.7,12.7,70,0.00,SCT,,0.00,WeatherDisplay:10.37,2013-06-24 13:57:00,
2013-06-24 10:02:00,80.4,70.1,30.49,NW,309,13.8,13.8,71,0.00,BKN,,0.00,WeatherDisplay:10.37,2013-06-24 14:02:00,
2013-06-24 10:07:00,80.8,69.7,30.48,West,269,9.2,9.2,69,0.00,BKN,,0.00,WeatherDisplay:10.37,2013-06-24 14:07:00,
2013-06-24 10:13:00,81.2,71.3,30.48,West,265,11.5,11.5,72,0.00,BKN,,0.00,WeatherDisplay:10.37,2013-06-24 14:13:00,
2013-06-24 10:18:00,81.6,71.3,30.48,WNW,298,9.2,9.2,71,0.00,BKN,,0.00,WeatherDisplay:10.37,2013-06-24 14:18:00,
2013-06-24 10:23:00,82.0,72.5,30.48,West,268,6.9,6.9,73,0.00,BKN,,0.00,WeatherDisplay:10.37,2013-06-24 14:23:00,
2013-06-24 10:29:00,82.2,70.6,30.48,WSW,245,10.4,10.4,68,0.00,BKN,,0.00,WeatherDisplay:10.37,2013-06-24 14:29:00,
2013-06-24 10:34:00,82.4,71.2,30.48,WNW,285,11.5,11.5,69,0.00,BKN,,0.00,WeatherDisplay:10.37,2013-06-24 14:34:00,
2013-06-24 10:40:00,82.6,71.8,30.48,West,259,10.4,10.4,70,0.00,BKN,,0.00,WeatherDisplay:10.37,2013-06-24 14:40:00,
2013-06-24 10:45:00,82.9,71.3,30.48,WSW,255,11.5,11.5,68,0.00,BKN,,0.00,WeatherDisplay:10.37,2013-06-24 14:45:00,
2013-06-24 10:51:00,83.3,72.1,30.48,West,270,8.0,8.0,69,0.00,BKN,,0.00,WeatherDisplay:10.37,2013-06-24 14:51:00,
2013-06-24 10:56:00,83.0,70.5,30.48,West,267,16.1,16.1,66,0.00,BKN,,0.00,WeatherDisplay:10.37,2013-06-24 14:56:00,
2013-06-24 11:03:00,82.8,71.2,30.48,WNW,297,9.2,9.2,68,0.00,BKN,,0.00,WeatherDisplay:10.37,2013-06-24 15:03:00,
2013-06-24 11:08:00,83.0,70.9,30.48,WNW,282,13.8,13.8,67,0.00,BKN,,0.00,WeatherDisplay:10.37,2013-06-24 15:08:00,
2013-06-24 11:14:00,83.7,71.1,30.48,WNW,286,9.2,9.2,66,0.00,BKN,,0.00,WeatherDisplay:10.37,2013-06-24 15:14:00,
2013-06-24 11:19:00,83.8,70.3,30.48,West,269,11.5,11.5,64,0.00,BKN,,0.00,WeatherDisplay:10.37,2013-06-24 15:19:00,
2013-06-24 11:26:00,84.5,72.3,30.48,WSW,240,8.1,8.1,67,0.00,BKN,,0.00,WeatherDisplay:10.37,2013-06-24 15:26:00,
2013-06-24 11:31:00,84.6,70.6,30.48,West,267,11.5,11.5,63,0.00,BKN,,0.00,WeatherDisplay:10.37,2013-06-24 15:31:00,
2013-06-24 11:36:00,84.2,69.8,30.48,WNW,292,11.5,11.5,62,0.00,BKN,,0.00,WeatherDisplay:10.37,2013-06-24 15:36:00,
2013-06-24 11:41:00,83.6,70.6,30.48,West,267,11.5,11.5,65,0.00,BKN,,0.00,WeatherDisplay:10.37,2013-06-24 15:41:00,
2013-06-24 11:46:00,84.2,71.2,30.48,WNW,282,13.8,13.8,65,0.00,BKN,,0.00,WeatherDisplay:10.37,2013-06-24 15:46:00,
2013-06-24 11:51:00,84.5,71.0,30.48,WSW,245,11.5,11.5,64,0.00,BKN,,0.00,WeatherDisplay:10.37,2013-06-24 15:51:00,
2013-06-24 11:56:00,84.7,71.2,30.48,WSW,250,11.5,11.5,64,0.00,BKN,,0.00,WeatherDisplay:10.37,2013-06-24 15:56:00,
2013-06-24 12:01:00,84.6,71.5,30.48,West,260,9.2,9.2,65,0.00,BKN,,0.00,WeatherDisplay:10.37,2013-06-24 16:01:00,
2013-06-24 12:06:00,84.8,70.8,30.48,West,271,8.1,8.1,63,0.00,BKN,,0.00,WeatherDisplay:10.37,2013-06-24 16:06:00,
2013-06-24 12:11:00,84.8,71.7,30.47,West,276,9.2,9.2,65,0.00,BKN,,0.00,WeatherDisplay:10.37,2013-06-24 16:11:00,
2013-06-24 12:16:00,85.5,70.0,30.47,West,264,11.5,11.5,60,0.00,BKN,,0.00,WeatherDisplay:10.37,2013-06-24 16:16:00,
2013-06-24 12:21:00,85.5,70.0,30.47,West,269,6.9,6.9,60,0.00,BKN,,0.00,WeatherDisplay:10.37,2013-06-24 16:21:00,
2013-06-24 12:27:00,85.7,71.7,30.47,WSW,247,9.2,9.2,63,0.00,BKN,,0.00,WeatherDisplay:10.37,2013-06-24 16:27:00,
2013-06-24 12:32:00,86.0,71.0,30.47,West,262,6.0,6.0,61,0.00,BKN,,0.00,WeatherDisplay:10.37,2013-06-24 16:32:00,
2013-06-24 12:37:00,86.4,71.8,30.47,West,279,8.1,8.1,62,0.00,BKN,,0.00,WeatherDisplay:10.37,2013-06-24 16:37:00,
2013-06-24 12:42:00,87.0,71.4,30.47,West,264,9.2,9.2,60,0.00,BKN,,0.00,WeatherDisplay:10.37,2013-06-24 16:42:00,
2013-06-24 12:47:00,86.7,68.6,30.47,WSW,253,13.8,13.8,55,0.00,BKN,,0.00,WeatherDisplay:10.37,2013-06-24 16:47:00,
2013-06-24 12:52:00,86.4,69.4,30.47,West,264,9.2,9.2,57,0.00,BKN,,0.00,WeatherDisplay:10.37,2013-06-24 16:52:00,
2013-06-24 12:57:00,86.6,69.6,30.47,WNW,282,9.2,9.2,57,0.00,BKN,,0.00,WeatherDisplay:10.37,2013-06-24 16:57:00,
2013-06-24 13:02:00,86.7,69.6,30.47,WNW,284,9.2,9.2,57,0.00,OVC,,0.00,WeatherDisplay:10.37,2013-06-24 17:02:00,
2013-06-24 13:08:00,86.6,69.6,30.47,SW,229,9.2,9.2,57,0.00,OVC,,0.00,WeatherDisplay:10.37,2013-06-24 17:08:00,
2013-06-24 13:13:00,87.2,69.6,30.47,WNW,283,6.0,6.4,56,0.00,OVC,,0.00,WeatherDisplay:10.37,2013-06-24 17:13:00,
2013-06-24 13:18:00,87.4,69.3,30.47,NW,311,12.7,12.7,55,0.00,OVC,,0.00,WeatherDisplay:10.37,2013-06-24 17:18:00,
2013-06-24 13:24:00,87.6,68.4,30.47,West,274,11.5,11.5,53,0.00,OVC,,0.00,WeatherDisplay:10.37,2013-06-24 17:24:00,
2013-06-24 13:29:00,87.5,69.3,30.47,West,272,10.4,10.4,55,0.00,OVC,,0.00,WeatherDisplay:10.37,2013-06-24 17:29:00,
2013-06-24 13:34:00,87.6,69.4,30.47,West,269,19.6,19.6,55,0.00,OVC,,0.00,WeatherDisplay:10.37,2013-06-24 17:34:00,
2013-06-24 13:40:00,87.2,69.1,30.47,WNW,291,11.0,11.0,55,0.00,OVC,,0.00,WeatherDisplay:10.37,2013-06-24 17:40:00,
2013-06-24 13:46:00,87.0,69.4,30.47,WNW,290,12.7,12.7,56,0.00,OVC,,0.00,WeatherDisplay:10.37,2013-06-24 17:46:00,
2013-06-24 13:52:00,87.0,69.9,30.47,NW,308,12.7,12.7,57,0.00,OVC,,0.00,WeatherDisplay:10.37,2013-06-24 17:52:00,
2013-06-24 13:57:00,87.0,71.9,30.46,NW,310,9.2,9.2,61,0.00,OVC,,0.00,WeatherDisplay:10.37,2013-06-24 17:57:00,
2013-06-24 14:03:00,87.0,70.9,30.46,WNW,286,9.2,9.2,59,0.00,BKN,,0.00,WeatherDisplay:10.37,2013-06-24 18:03:00,
2013-06-24 14:08:00,87.2,69.6,30.46,West,281,11.5,11.5,56,0.00,BKN,,0.00,WeatherDisplay:10.37,2013-06-24 18:08:00,
2013-06-24 14:13:00,86.6,70.6,30.45,WNW,286,12.7,12.7,59,0.00,BKN,,0.00,WeatherDisplay:10.37,2013-06-24 18:13:00,
2013-06-24 14:18:00,86.7,71.2,30.45,WNW,300,6.9,6.9,60,0.00,BKN,,0.00,WeatherDisplay:10.37,2013-06-24 18:18:00,
2013-06-24 14:23:00,87.1,72.5,30.45,NW,304,10.4,10.4,62,0.00,BKN,,0.00,WeatherDisplay:10.37,2013-06-24 18:23:00,
2013-06-24 14:28:00,86.9,71.3,30.44,NW,312,13.8,13.8,60,0.00,BKN,,0.00,WeatherDisplay:10.37,2013-06-24 18:28:00,
2013-06-24 14:33:00,86.5,70.5,30.44,WNW,296,13.8,13.8,59,0.00,BKN,,0.00,WeatherDisplay:10.37,2013-06-24 18:33:00,
2013-06-24 14:38:00,86.7,68.6,30.43,West,263,17.3,17.3,55,0.00,BKN,,0.00,WeatherDisplay:10.37,2013-06-24 18:38:00,
2013-06-24 14:43:00,86.8,69.2,30.43,NW,306,15.0,15.0,56,0.00,BKN,,0.00,WeatherDisplay:10.37,2013-06-24 18:43:00,
2013-06-24 14:48:00,86.6,67.4,30.44,WNW,301,13.8,13.8,53,0.00,BKN,,0.00,WeatherDisplay:10.37,2013-06-24 18:48:00,
2013-06-24 14:54:00,86.4,67.8,30.43,WNW,293,14.0,14.0,54,0.00,BKN,,0.00,WeatherDisplay:10.37,2013-06-24 18:54:00,
2013-06-24 14:59:00,86.3,67.2,30.43,WNW,293,17.3,17.3,53,0.00,BKN,,0.00,WeatherDisplay:10.37,2013-06-24 18:59:00,
2013-06-24 15:04:00,86.4,68.3,30.43,SW,218,13.8,13.8,55,0.00,SCT,,0.00,WeatherDisplay:10.37,2013-06-24 19:04:00,
2013-06-24 15:09:00,86.6,68.5,30.43,WNW,293,16.1,16.1,55,0.00,SCT,,0.00,WeatherDisplay:10.37,2013-06-24 19:09:00,
2013-06-24 15:14:00,86.6,68.5,30.43,West,274,15.0,15.0,55,0.00,SCT,,0.00,WeatherDisplay:10.37,2013-06-24 19:14:00,
2013-06-24 15:19:00,86.1,66.4,30.43,NW,304,19.6,19.6,52,0.00,SCT,,0.00,WeatherDisplay:10.37,2013-06-24 19:19:00,
2013-06-24 15:24:00,85.6,67.0,30.43,West,272,17.0,17.0,54,0.00,SCT,,0.00,WeatherDisplay:10.37,2013-06-24 19:24:00,
2013-06-24 15:29:00,85.5,67.5,30.43,West,276,19.6,19.6,55,0.00,SCT,,0.00,WeatherDisplay:10.37,2013-06-24 19:29:00,
2013-06-24 15:34:00,85.6,67.6,30.42,West,268,16.1,16.1,55,0.00,SCT,,0.00,WeatherDisplay:10.37,2013-06-24 19:34:00,
2013-06-24 15:40:00,85.3,68.3,30.43,West,276,13.8,13.8,57,0.00,SCT,,0.00,WeatherDisplay:10.37,2013-06-24 19:40:00,
2013-06-24 15:46:00,85.5,70.0,30.42,WNW,288,11.5,11.5,60,0.00,SCT,,0.00,WeatherDisplay:10.37,2013-06-24 19:46:00,
2013-06-24 15:51:00,85.6,69.1,30.42,WSW,243,15.0,15.0,58,0.00,SCT,,0.00,WeatherDisplay:10.37,2013-06-24 19:51:00,
2013-06-24 15:57:00,85.5,68.0,30.42,West,281,13.0,13.0,56,0.00,SCT,,0.00,WeatherDisplay:10.37,2013-06-24 19:57:00,
2013-06-24 16:02:00,85.3,67.3,30.42,WNW,298,13.8,13.8,55,0.00,SCT,,0.00,WeatherDisplay:10.37,2013-06-24 20:02:00,
2013-06-24 16:08:00,85.2,67.2,30.41,WNW,293,11.0,11.0,55,0.00,SCT,,0.00,WeatherDisplay:10.37,2013-06-24 20:08:00,
2013-06-24 16:13:00,85.1,64.9,30.42,WNW,298,19.6,19.6,51,0.00,SCT,,0.00,WeatherDisplay:10.37,2013-06-24 20:13:00,
2013-06-24 16:18:00,85.0,66.5,30.42,WNW,297,16.0,16.0,54,0.00,SCT,,0.00,WeatherDisplay:10.37,2013-06-24 20:18:00,
2013-06-24 16:23:00,85.0,65.4,30.42,NW,317,17.3,17.3,52,0.00,SCT,,0.00,WeatherDisplay:10.37,2013-06-24 20:23:00,
2013-06-24 16:28:00,85.1,65.5,30.42,West,267,11.5,11.5,52,0.00,SCT,,0.00,WeatherDisplay:10.37,2013-06-24 20:28:00,
2013-06-24 16:33:00,85.1,63.8,30.41,West,262,18.4,18.4,49,0.00,SCT,,0.00,WeatherDisplay:10.37,2013-06-24 20:33:00,
2013-06-24 16:38:00,85.1,66.0,30.41,WNW,292,16.0,16.0,53,0.00,SCT,,0.00,WeatherDisplay:10.37,2013-06-24 20:38:00,
2013-06-24 16:43:00,84.9,64.8,30.41,West,280,12.7,12.7,51,0.00,SCT,,0.00,WeatherDisplay:10.37,2013-06-24 20:43:00,
2013-06-24 16:48:00,85.1,66.0,30.41,WNW,302,15.0,15.0,53,0.00,SCT,,0.00,WeatherDisplay:10.37,2013-06-24 20:48:00,
2013-06-24 16:53:00,85.1,66.0,30.41,NW,317,11.5,11.5,53,0.00,SCT,,0.00,WeatherDisplay:10.37,2013-06-24 20:53:00,
2013-06-24 16:58:00,85.0,65.4,30.41,WNW,302,16.1,16.1,52,0.00,SCT,,0.00,WeatherDisplay:10.37,2013-06-24 20:58:00,
2013-06-24 17:03:00,84.9,64.2,30.40,West,275,11.5,11.5,50,0.00,SCT,,0.00,WeatherDisplay:10.37,2013-06-24 21:03:00,
2013-06-24 17:09:00,85.3,66.2,30.40,WNW,283,15.0,15.0,53,0.00,SCT,,0.00,WeatherDisplay:10.37,2013-06-24 21:09:00,
2013-06-24 17:14:00,85.4,65.2,30.40,West,276,11.5,11.5,51,0.00,SCT,,0.00,WeatherDisplay:10.37,2013-06-24 21:14:00,
2013-06-24 17:19:00,85.3,62.8,30.40,West,262,17.3,17.3,47,0.00,SCT,,0.00,WeatherDisplay:10.37,2013-06-24 21:19:00,
2013-06-24 17:24:00,85.2,63.3,30.40,West,262,13.0,13.0,48,0.00,SCT,,0.00,WeatherDisplay:10.37,2013-06-24 21:24:00,
2013-06-24 17:29:00,85.2,64.5,30.40,WNW,302,11.5,11.5,50,0.00,SCT,,0.00,WeatherDisplay:10.37,2013-06-24 21:29:00,
2013-06-24 17:34:00,85.2,65.0,30.40,WNW,295,11.5,11.5,51,0.00,SCT,,0.00,WeatherDisplay:10.37,2013-06-24 21:34:00,
2013-06-24 17:39:00,85.2,63.9,30.40,WNW,287,12.7,12.7,49,0.00,SCT,,0.00,WeatherDisplay:10.37,2013-06-24 21:39:00,
2013-06-24 17:44:00,85.2,63.9,30.40,NW,310,13.8,13.8,49,0.00,SCT,,0.00,WeatherDisplay:10.37,2013-06-24 21:44:00,
2013-06-24 17:50:00,85.1,63.8,30.40,West,264,19.0,19.0,49,0.00,SCT,,0.00,WeatherDisplay:10.37,2013-06-24 21:50:00,
2013-06-24 17:55:00,84.9,64.8,30.40,WNW,287,12.0,12.0,51,0.00,SCT,,0.00,WeatherDisplay:10.37,2013-06-24 21:55:00,
2013-06-24 18:00:00,84.3,63.6,30.39,WNW,296,15.0,15.0,50,0.00,SCT,,0.00,WeatherDisplay:10.37,2013-06-24 22:00:00,
2013-06-24 18:06:00,84.1,65.1,30.40,West,262,8.1,8.1,53,0.00,SCT,,0.00,WeatherDisplay:10.37,2013-06-24 22:06:00,
2013-06-24 18:11:00,83.7,64.2,30.40,WNW,295,12.0,12.0,52,0.00,SCT,,0.00,WeatherDisplay:10.37,2013-06-24 22:11:00,
2013-06-24 18:16:00,83.6,64.7,30.40,WNW,300,10.4,10.4,53,0.00,SCT,,0.00,WeatherDisplay:10.37,2013-06-24 22:16:00,
2013-06-24 18:21:00,83.9,65.5,30.39,West,278,11.5,11.5,54,0.00,SCT,,0.00,WeatherDisplay:10.37,2013-06-24 22:21:00,
2013-06-24 18:27:00,83.6,64.7,30.39,West,277,12.7,12.7,53,0.00,SCT,,0.00,WeatherDisplay:10.37,2013-06-24 22:27:00,
2013-06-24 18:32:00,83.5,65.1,30.39,WNW,288,11.0,11.0,54,0.00,SCT,,0.00,WeatherDisplay:10.37,2013-06-24 22:32:00,
2013-06-24 18:37:00,83.6,65.7,30.39,WNW,292,5.8,5.8,55,0.00,SCT,,0.00,WeatherDisplay:10.37,2013-06-24 22:37:00,
2013-06-24 18:42:00,83.8,64.8,30.40,West,265,11.0,11.0,53,0.00,SCT,,0.00,WeatherDisplay:10.37,2013-06-24 22:42:00,
2013-06-24 18:47:00,84.1,64.6,30.40,West,276,11.0,11.0,52,0.00,SCT,,0.00,WeatherDisplay:10.37,2013-06-24 22:47:00,
2013-06-24 18:52:00,84.3,65.8,30.40,WSW,242,8.1,8.1,54,0.00,SCT,,0.00,WeatherDisplay:10.37,2013-06-24 22:52:00,
2013-06-24 18:58:00,84.3,65.8,30.40,WNW,287,9.2,9.2,54,0.00,SCT,,0.00,WeatherDisplay:10.37,2013-06-24 22:58:00,
2013-06-24 19:04:00,84.1,66.2,30.39,WNW,283,11.5,11.5,55,0.00,SCT,,0.00,WeatherDisplay:10.37,2013-06-24 23:04:00,
2013-06-24 19:10:00,83.9,64.9,30.39,WNW,285,8.1,8.1,53,0.00,SCT,,0.00,WeatherDisplay:10.37,2013-06-24 23:10:00,
2013-06-24 19:15:00,83.8,65.4,30.39,WNW,296,9.2,9.2,54,0.00,SCT,,0.00,WeatherDisplay:10.37,2013-06-24 23:15:00,
2013-06-24 19:20:00,83.7,65.3,30.39,WSW,255,8.1,8.1,54,0.00,SCT,,0.00,WeatherDisplay:10.37,2013-06-24 23:20:00,
2013-06-24 19:25:00,83.5,65.1,30.39,NW,307,11.5,11.5,54,0.00,SCT,,0.00,WeatherDisplay:10.37,2013-06-24 23:25:00,
2013-06-24 19:30:00,83.4,66.1,30.40,West,281,5.8,5.8,56,0.00,SCT,,0.00,WeatherDisplay:10.37,2013-06-24 23:30:00,
2013-06-24 19:35:00,83.3,65.4,30.40,WNW,287,5.8,5.8,55,0.00,SCT,,0.00,WeatherDisplay:10.37,2013-06-24 23:35:00,
2013-06-24 19:41:00,83.2,66.9,30.40,West,261,4.6,4.6,58,0.00,SCT,,0.00,WeatherDisplay:10.37,2013-06-24 23:41:00,
2013-06-24 19:46:00,82.9,65.6,30.40,WSW,257,7.0,7.0,56,0.00,SCT,,0.00,WeatherDisplay:10.37,2013-06-24 23:46:00,
2013-06-24 19:52:00,82.7,65.4,30.40,West,274,10.4,10.4,56,0.00,SCT,,0.00,WeatherDisplay:10.37,2013-06-24 23:52:00,
2013-06-24 19:57:00,82.5,65.7,30.40,West,261,5.0,5.0,57,0.00,SCT,,0.00,WeatherDisplay:10.37,2013-06-24 23:57:00,
2013-06-24 20:02:00,82.2,64.9,30.40,West,260,11.5,11.5,56,0.00,SCT,,0.00,WeatherDisplay:10.37,2013-06-25 00:02:00,
2013-06-24 20:07:00,82.0,65.3,30.40,West,263,9.2,9.2,57,0.00,SCT,,0.00,WeatherDisplay:10.37,2013-06-25 00:07:00,
2013-06-24 20:12:00,81.5,65.3,30.40,WNW,286,8.1,8.1,58,0.00,SCT,,0.00,WeatherDisplay:10.37,2013-06-25 00:12:00,
2013-06-24 20:17:00,81.1,64.9,30.40,West,267,6.9,6.9,58,0.00,SCT,,0.00,WeatherDisplay:10.37,2013-06-25 00:17:00,
2013-06-24 20:23:00,80.6,64.0,30.40,West,264,11.5,11.5,57,0.00,SCT,,0.00,WeatherDisplay:10.37,2013-06-25 00:23:00,
2013-06-24 20:29:00,80.3,64.2,30.40,West,268,8.1,8.1,58,0.00,SCT,,0.00,WeatherDisplay:10.37,2013-06-25 00:29:00,
2013-06-24 20:34:00,79.9,63.8,30.40,West,280,5.8,5.8,58,0.00,SCT,,0.00,WeatherDisplay:10.37,2013-06-25 00:34:00,
2013-06-24 20:40:00,79.4,63.3,30.40,WSW,253,5.8,5.8,58,0.00,SCT,,0.00,WeatherDisplay:10.37,2013-06-25 00:40:00,
2013-06-24 20:45:00,79.2,63.1,30.40,West,273,5.8,5.8,58,0.00,SCT,,0.00,WeatherDisplay:10.37,2013-06-25 00:45:00,
2013-06-24 20:50:00,78.8,63.3,30.40,West,270,3.5,3.5,59,0.00,SCT,,0.00,WeatherDisplay:10.37,2013-06-25 00:50:00,
2013-06-24 20:55:00,78.6,62.6,30.40,West,267,7.0,7.0,58,0.00,SCT,,0.00,WeatherDisplay:10.37,2013-06-25 00:55:00,
2013-06-24 21:00:00,78.7,62.7,30.40,West,274,5.8,5.8,58,0.00,SCT,,0.00,WeatherDisplay:10.37,2013-06-25 01:00:00,
2013-06-24 21:05:00,78.5,62.0,30.40,WSW,242,5.0,5.0,57,0.00,FEW,,0.00,WeatherDisplay:10.37,2013-06-25 01:05:00,
2013-06-24 21:10:00,78.3,61.8,30.40,West,266,3.5,3.5,57,0.00,FEW,,0.00,WeatherDisplay:10.37,2013-06-25 01:10:00,
2013-06-24 21:15:00,77.9,61.9,30.40,WSW,250,3.0,3.0,58,0.00,FEW,,0.00,WeatherDisplay:10.37,2013-06-25 01:15:00,
2013-06-24 21:20:00,77.6,62.6,30.40,WSW,247,2.3,2.3,60,0.00,FEW,,0.00,WeatherDisplay:10.37,2013-06-25 01:20:00,
2013-06-24 21:25:00,77.1,62.1,30.41,West,275,4.0,4.0,60,0.00,FEW,,0.00,WeatherDisplay:10.37,2013-06-25 01:25:00,
2013-06-24 21:30:00,76.9,62.4,30.41,West,264,3.5,3.5,61,0.00,FEW,,0.00,WeatherDisplay:10.37,2013-06-25 01:30:00,
2013-06-24 21:35:00,76.8,62.3,30.41,WNW,290,3.5,3.5,61,0.00,FEW,,0.00,WeatherDisplay:10.37,2013-06-25 01:35:00,
2013-06-24 21:40:00,77.1,62.1,30.41,West,280,4.6,4.6,60,0.00,FEW,,0.00,WeatherDisplay:10.37,2013-06-25 01:40:00,
2013-06-24 21:45:00,77.0,62.5,30.41,West,264,3.0,3.0,61,0.00,FEW,,0.00,WeatherDisplay:10.37,2013-06-25 01:45:00,
2013-06-24 21:50:00,76.8,62.3,30.41,West,272,3.5,3.5,61,0.00,FEW,,0.00,WeatherDisplay:10.37,2013-06-25 01:50:00,
2013-06-24 21:56:00,76.4,62.4,30.41,West,272,1.2,1.2,62,0.00,FEW,,0.00,WeatherDisplay:10.37,2013-06-25 01:56:00,
2013-06-24 22:01:00,76.0,62.5,30.41,West,269,2.3,2.3,63,0.00,FEW,,0.00,WeatherDisplay:10.37,2013-06-25 02:01:00,
2013-06-24 22:07:00,75.6,62.1,30.41,West,276,3.5,3.5,63,0.00,FEW,,0.00,WeatherDisplay:10.37,2013-06-25 02:07:00,
2013-06-24 22:12:00,75.9,62.8,30.41,WNW,298,3.5,3.5,64,0.00,FEW,,0.00,WeatherDisplay:10.37,2013-06-25 02:12:00,
2013-06-24 22:17:00,76.2,62.7,30.41,WSW,241,5.0,5.0,63,0.00,FEW,,0.00,WeatherDisplay:10.37,2013-06-25 02:17:00,
2013-06-24 22:24:00,76.1,63.0,30.42,West,264,5.0,5.0,64,0.00,FEW,,0.00,WeatherDisplay:10.37,2013-06-25 02:24:00,
2013-06-24 22:29:00,76.0,62.9,30.42,WSW,248,4.6,4.6,64,0.00,FEW,,0.00,WeatherDisplay:10.37,2013-06-25 02:29:00,
2013-06-24 22:34:00,75.9,62.8,30.42,WNW,283,3.5,3.5,64,0.00,FEW,,0.00,WeatherDisplay:10.37,2013-06-25 02:34:00,
2013-06-24 22:39:00,75.8,62.8,30.42,West,275,5.0,5.0,64,0.00,FEW,,0.00,WeatherDisplay:10.37,2013-06-25 02:39:00,
2013-06-24 22:44:00,75.7,63.1,30.42,West,267,4.6,4.6,65,0.00,FEW,,0.00,WeatherDisplay:10.37,2013-06-25 02:44:00,
2013-06-24 22:49:00,75.8,63.2,30.42,West,274,3.5,3.5,65,0.00,FEW,,0.00,WeatherDisplay:10.37,2013-06-25 02:49:00,
2013-06-24 22:54:00,75.9,63.3,30.42,WNW,285,3.5,3.5,65,0.00,FEW,,0.00,WeatherDisplay:10.37,2013-06-25 02:54:00,
2013-06-24 22:59:00,75.9,62.8,30.42,West,275,4.6,4.6,64,0.00,FEW,,0.00,WeatherDisplay:10.37,2013-06-25 02:59:00,
2013-06-24 23:05:00,75.9,63.3,30.42,WSW,254,3.5,3.5,65,0.00,FEW,,0.00,WeatherDisplay:10.37,2013-06-25 03:05:00,
2013-06-24 23:10:00,75.6,63.4,30.42,WSW,253,3.5,3.5,66,0.00,FEW,,0.00,WeatherDisplay:10.37,2013-06-25 03:10:00,
2013-06-24 23:16:00,75.3,63.2,30.41,WSW,243,3.5,3.5,66,0.00,FEW,,0.00,WeatherDisplay:10.37,2013-06-25 03:16:00,
2013-06-24 23:21:00,75.2,63.5,30.41,West,267,4.0,4.0,67,0.00,FEW,,0.00,WeatherDisplay:10.37,2013-06-25 03:21:00,
2013-06-24 23:26:00,74.8,63.5,30.41,WSW,250,2.3,2.3,68,0.00,FEW,,0.00,WeatherDisplay:10.37,2013-06-25 03:26:00,
2013-06-24 23:32:00,74.5,63.7,30.41,WSW,245,3.5,3.5,69,0.00,FEW,,0.00,WeatherDisplay:10.37,2013-06-25 03:32:00,
2013-06-24 23:37:00,74.1,63.3,30.41,WSW,237,3.5,3.5,69,0.00,FEW,,0.00,WeatherDisplay:10.37,2013-06-25 03:37:00,
2013-06-24 23:42:00,73.7,63.3,30.40,WSW,257,2.3,2.3,70,0.00,FEW,,0.00,WeatherDisplay:10.37,2013-06-25 03:42:00,
2013-06-24 23:48:00,73.4,63.4,30.41,WSW,257,2.3,2.3,71,0.00,FEW,,0.00,WeatherDisplay:10.37,2013-06-25 03:48:00,
2013-06-24 23:53:00,73.0,63.8,30.41,WSW,254,2.3,2.3,73,0.00,FEW,,0.00,WeatherDisplay:10.37,2013-06-25 03:53:00,
2013-06-24 23:59:00,72.9,63.7,30.41,West,263,1.2,1.2,73,0.00,FEW,,0.00,WeatherDisplay:10.37,2013-06-25 03:59:00,